KAGC/AGC METAR and TAF weather

Enter ICAO airport designator
Station Type Date Time Source
KAGC METAR 2019/04/25 20:53 UTC NOAA

KAGC 252053Z 11004KT 4SM -RA BR OVC095 16/15 A2980 RMK AO2 SLP096 P0003 60003 T01560150 58012


Station Type Date Time Source
KAGC Decoded METAR 2019/04/25 20:53 UTC NOAA

PITTSBURGH ALLEGHENY CTY., PA, United States (KAGC) 40-21N 079-55W 389M
Apr 25, 2019 - 04:53 PM EDT / 2019.04.25 2053 UTC
Wind: from the ESE (110 degrees) at 5 MPH (4 KT):0
Visibility: 4 mile(s):0
Sky conditions: overcast
Weather: light rain; mist
Precipitation last hour: 0.03 inches
Temperature: 60.1 F (15.6 C)
Dew Point: 59.0 F (15.0 C)
Relative Humidity: 96%
Pressure (altimeter): 29.8 in. Hg (1009 hPa)
Pressure tendency: 0.04 inches (1.2 hPa) lower than three hours ago
ob: KAGC 252053Z 11004KT 4SM -RA BR OVC095 16/15 A2980 RMK AO2 SLP096 P0003 60003 T01560150 58012
cycle: 21

Station Type Date Time Source
KAGC TAF 2019/04/25 21:15 UTC NOAA

TAF
AMD KAGC 252113Z 2521/2618 16005KT P6SM BKN050
TEMPO 2521/2523 -SHRA
FM260300 15005KT P6SM -SHRA BKN030 WS020/19040KT
FM260800 18010KT 4SM -SHRA BR OVC010 WS020/21040KT

Example: see airport list